Time;durP1;ratioP1;P1;durP2;ratioP2;P2;SDS_P1;SDS_P2;PMS_P1;PMS_P2;Temp;Humidity;BMP_temperature;BMP_pressure;BME280_temperature;BME280_humidity;BME280_pressure;Samples;Min_cycle;Max_cycle;Signal;HPM_P1;HPM_P2
2022/04/27 00:01:13;;;;;;;8.48;2.83;;;;;;;24.77;28.41;101230.50;5033797;28;20030;-53
2022/04/27 00:03:39;;;;;;;9.32;2.92;;;;;;;24.55;28.09;101233.75;5034040;28;20604;-52
2022/04/27 00:06:05;;;;;;;7.22;3.53;;;;;;;24.57;28.58;101230.72;5033886;28;20076;-52
2022/04/27 00:08:32;;;;;;;6.63;2.80;;;;;;;24.26;28.21;101230.97;5032481;28;20032;-52
2022/04/27 00:10:58;;;;;;;5.18;2.72;;;;;;;24.18;28.61;101237.09;5033893;28;20072;-52
2022/04/27 00:13:24;;;;;;;4.75;2.42;;;;;;;24.22;29.04;101235.41;5033464;28;20532;-51
2022/04/27 00:15:51;;;;;;;6.32;2.60;;;;;;;24.20;29.12;101226.66;5033544;28;20018;-52
2022/04/27 00:18:17;;;;;;;8.63;2.60;;;;;;;24.17;29.09;101224.53;5033744;28;20087;-52
2022/04/27 00:20:43;;;;;;;6.45;2.50;;;;;;;23.91;29.54;101230.19;5033578;28;20025;-51
2022/04/27 00:23:10;;;;;;;7.35;2.75;;;;;;;23.86;29.12;101227.50;5033864;28;20091;-53
2022/04/27 00:25:36;;;;;;;4.95;2.47;;;;;;;23.93;28.65;101225.28;5033214;28;20474;-52
2022/04/27 00:28:03;;;;;;;5.25;2.53;;;;;;;23.90;29.69;101228.56;5033280;28;20045;-51
2022/04/27 00:30:29;;;;;;;10.15;2.80;;;;;;;23.71;29.99;101233.13;5033395;28;20048;-50
2022/04/27 00:32:56;;;;;;;6.35;2.63;;;;;;;23.50;30.51;101226.13;5033487;28;20381;-51
2022/04/27 00:35:22;;;;;;;5.55;2.90;;;;;;;23.35;30.98;101227.84;5033186;28;20083;-52
2022/04/27 00:37:48;;;;;;;9.05;2.85;;;;;;;23.44;30.01;101217.13;5032979;28;20117;-51
2022/04/27 00:40:14;;;;;;;14.07;3.22;;;;;;;23.44;30.45;101217.94;5033302;28;20033;-51
2022/04/27 00:42:41;;;;;;;8.35;2.50;;;;;;;23.24;30.70;101219.97;5033213;28;20029;-49
2022/04/27 00:45:07;;;;;;;9.90;2.75;;;;;;;23.12;30.54;101225.78;5033546;28;20419;-52
2022/04/27 00:47:33;;;;;;;7.05;2.42;;;;;;;22.92;32.12;101223.94;5033210;28;20021;-50
2022/04/27 00:50:02;;;;;;;4.13;2.05;;;;;;;22.98;30.66;101224.72;5032910;28;20116;-50
2022/04/27 00:52:32;;;;;;;4.40;2.35;;;;;;;22.56;31.68;101228.69;5032857;28;20030;-49
2022/04/27 00:54:59;;;;;;;8.43;3.05;;;;;;;22.64;31.92;101220.72;5033171;28;20085;-49
2022/04/27 00:57:26;;;;;;;5.50;2.90;;;;;;;22.33;31.23;101216.47;5032971;28;20036;-49
2022/04/27 00:59:54;;;;;;;8.43;3.08;;;;;;;22.14;32.59;101225.19;5032857;28;20091;-50
2022/04/27 01:02:20;;;;;;;9.15;3.92;;;;;;;22.16;32.23;101216.75;5032813;28;20021;-52
2022/04/27 01:04:47;;;;;;;7.93;2.70;;;;;;;22.03;32.51;101222.72;5032945;28;20109;-50
2022/04/27 01:07:14;;;;;;;6.28;2.63;;;;;;;21.80;33.59;101219.44;5032928;28;20105;-50
2022/04/27 01:09:41;;;;;;;9.50;2.75;;;;;;;21.55;33.55;101217.53;5032707;28;20026;-51
2022/04/27 01:12:07;;;;;;;6.22;2.80;;;;;;;21.38;33.82;101222.41;5032793;28;20091;-51
2022/04/27 01:14:45;;;;;;;11.25;2.90;;;;;;;21.11;34.84;101230.72;5032664;28;20032;-50
2022/04/27 01:17:11;;;;;;;6.05;2.20;;;;;;;21.11;35.57;101225.28;5032533;28;20113;-49
2022/04/27 01:19:38;;;;;;;7.55;3.08;;;;;;;20.94;35.46;101228.19;5032774;28;20025;-51
2022/04/27 01:22:05;;;;;;;8.15;2.90;;;;;;;20.66;35.54;101221.28;5032616;28;20025;-50
2022/04/27 01:24:31;;;;;;;5.68;2.42;;;;;;;20.47;35.66;101225.50;5032394;28;20108;-50
2022/04/27 01:26:58;;;;;;;8.70;2.58;;;;;;;20.18;36.14;101220.38;5032655;28;20033;-51
2022/04/27 01:29:24;;;;;;;8.60;2.75;;;;;;;19.71;36.98;101231.09;5032440;28;20090;-49
2022/04/27 01:31:53;;;;;;;5.75;2.28;;;;;;;19.61;37.11;101226.41;5031395;28;20132;-49
2022/04/27 01:34:20;;;;;;;8.77;2.78;;;;;;;19.67;38.21;101230.00;5032545;28;20033;-48
2022/04/27 01:36:47;;;;;;;7.95;2.67;;;;;;;19.61;37.87;101222.88;5036724;28;20029;-51
2022/04/27 01:39:13;;;;;;;6.53;2.72;;;;;;;19.46;37.84;101215.38;5036753;28;20021;-48
2022/04/27 01:41:40;;;;;;;7.55;3.47;;;;;;;19.45;37.78;101219.97;5036699;28;20040;-50
2022/04/27 01:44:06;;;;;;;6.57;3.05;;;;;;;19.45;38.14;101222.69;5036466;28;20024;-49
2022/04/27 01:46:33;;;;;;;7.13;2.67;;;;;;;19.49;37.95;101231.16;5036421;28;20026;-48
2022/04/27 01:49:00;;;;;;;8.50;2.65;;;;;;;19.51;37.61;101229.00;5036338;28;20068;-49
2022/04/27 01:54:16;;;;;;;9.15;3.25;;;;;;;19.35;38.40;101228.00;5036816;28;20033;-49
2022/04/27 01:56:47;;;;;;;6.10;2.90;;;;;;;19.17;38.52;101225.63;5036170;28;20036;-51
2022/04/27 01:59:14;;;;;;;6.95;2.75;;;;;;;18.98;39.10;101228.66;5036399;28;20030;-48
2022/04/27 02:01:41;;;;;;;6.25;2.67;;;;;;;18.81;39.45;101229.78;5036192;28;20025;-49
2022/04/27 02:04:08;;;;;;;8.23;2.95;;;;;;;18.49;39.36;101225.00;5036087;28;20025;-51
2022/04/27 02:06:37;;;;;;;9.45;2.97;;;;;;;18.64;39.01;101224.38;5035946;28;20033;-52
2022/04/27 02:09:07;;;;;;;6.80;2.50;;;;;;;18.56;39.71;101225.66;5036028;28;20116;-51
2022/04/27 02:11:34;;;;;;;11.73;3.42;;;;;;;18.41;39.30;101217.28;5035739;28;20481;-51
2022/04/27 02:14:01;;;;;;;8.75;2.55;;;;;;;18.21;40.21;101223.22;5035830;28;20063;-48
2022/04/27 02:16:29;;;;;;;7.18;2.85;;;;;;;18.21;40.21;101223.22;5035954;28;20021;-51
2022/04/27 02:18:56;;;;;;;10.65;2.92;;;;;;;17.90;41.47;101227.31;5035844;28;20083;-48
2022/04/27 02:21:23;;;;;;;11.18;3.00;;;;;;;17.58;41.84;101216.16;5035733;28;20076;-52
2022/04/27 02:23:49;;;;;;;8.23;2.90;;;;;;;17.72;42.02;101222.13;5035781;28;20025;-51
2022/04/27 02:26:17;;;;;;;13.23;3.45;;;;;;;17.55;41.56;101225.63;5036173;28;20096;-51
2022/04/27 02:28:44;;;;;;;8.38;3.38;;;;;;;17.68;41.73;101229.88;5035235;28;20076;-51
2022/04/27 02:31:10;;;;;;;10.27;3.05;;;;;;;17.34;42.08;101239.81;5035614;28;20061;-48
2022/04/27 02:33:37;;;;;;;10.80;3.47;;;;;;;17.33;41.93;101232.78;5036395;28;20076;-49
2022/04/27 02:36:03;;;;;;;11.18;3.38;;;;;;;17.15;42.32;101226.44;5035309;28;20112;-49
2022/04/27 02:38:29;;;;;;;9.82;3.05;;;;;;;16.99;42.89;101238.03;5035531;28;20075;-48
2022/04/27 02:40:56;;;;;;;10.73;3.47;;;;;;;16.96;43.37;101235.00;5035270;28;20017;-48
2022/04/27 02:43:22;;;;;;;8.95;2.72;;;;;;;16.96;43.18;101227.69;5035429;28;20040;-50
2022/04/27 02:45:49;;;;;;;11.82;3.22;;;;;;;16.68;43.03;101225.72;5035185;28;20086;-48
2022/04/27 02:48:15;;;;;;;10.52;3.22;;;;;;;16.52;43.23;101235.38;5034928;28;20405;-48
2022/04/27 02:53:27;;;;;;;10.17;2.97;;;;;;;16.36;44.09;101228.78;5035992;28;20040;-48
2022/04/27 02:55:53;;;;;;;8.98;2.95;;;;;;;16.39;44.17;101232.09;5034980;28;20025;-48
2022/04/27 02:58:19;;;;;;;9.52;3.28;;;;;;;16.42;44.44;101227.00;5035202;28;20033;-48
2022/04/27 03:00:45;;;;;;;8.40;3.00;;;;;;;16.41;44.56;101232.66;5035297;28;20527;-48
2022/04/27 03:03:12;;;;;;;9.30;2.97;;;;;;;16.35;44.65;101232.53;5034909;28;20030;-48
2022/04/27 03:05:38;;;;;;;8.40;3.13;;;;;;;16.28;44.87;101239.13;5034750;28;20032;-48
2022/04/27 03:08:05;;;;;;;8.65;2.88;;;;;;;15.98;45.68;101245.41;5034897;28;20026;-48
2022/04/27 03:10:31;;;;;;;10.52;3.60;;;;;;;16.18;45.22;101241.59;5034813;28;20022;-48
2022/04/27 03:12:59;;;;;;;10.63;2.72;;;;;;;16.15;45.29;101242.03;5035079;28;20029;-48
2022/04/27 03:15:25;;;;;;;8.77;2.60;;;;;;;16.29;45.74;101243.47;5034791;28;20104;-49
2022/04/27 03:20:36;;;;;;;8.73;2.80;;;;;;;16.20;44.85;101244.84;5035380;28;20047;-49
2022/04/27 03:23:02;;;;;;;10.20;2.88;;;;;;;16.19;44.81;101251.31;5035187;28;20047;-48
2022/04/27 03:25:29;;;;;;;8.27;2.63;;;;;;;16.29;44.36;101254.28;5035021;28;20124;-48
2022/04/27 03:27:55;;;;;;;14.90;3.33;;;;;;;16.26;44.71;101255.53;5034308;28;20049;-48
2022/04/27 03:30:22;;;;;;;8.63;3.05;;;;;;;16.23;44.76;101260.63;5034706;28;20030;-48
2022/04/27 03:32:48;;;;;;;10.60;2.85;;;;;;;16.28;44.55;101260.75;5034954;28;20056;-49
2022/04/27 03:35:14;;;;;;;9.13;2.78;;;;;;;16.21;44.33;101257.31;5035168;28;20032;-51
2022/04/27 03:37:41;;;;;;;9.18;2.88;;;;;;;16.39;44.37;101262.63;5034788;28;20108;-48
2022/04/27 03:40:09;;;;;;;9.63;2.65;;;;;;;16.30;44.50;101267.53;5034437;28;20072;-48
2022/04/27 03:42:36;;;;;;;7.82;2.53;;;;;;;16.29;44.81;101267.78;5034523;28;20025;-47
2022/04/27 03:45:02;;;;;;;11.98;3.13;;;;;;;16.18;45.04;101276.69;5034404;28;20028;-48
2022/04/27 03:47:28;;;;;;;14.20;3.92;;;;;;;16.06;45.47;101277.50;5034843;28;20033;-47
2022/04/27 03:49:59;;;;;;;23.73;4.25;;;;;;;15.94;46.35;101282.03;5034120;28;20354;-48
2022/04/27 03:52:26;;;;;;;13.05;3.30;;;;;;;15.98;47.68;101280.50;5034078;28;20477;-48
2022/04/27 03:54:52;;;;;;;17.23;4.53;;;;;;;15.96;48.02;101274.53;5034336;28;20030;-49
2022/04/27 03:57:18;;;;;;;14.57;4.40;;;;;;;15.75;49.06;101280.44;5034071;28;20409;-48
2022/04/27 03:59:44;;;;;;;14.13;4.03;;;;;;;15.85;48.81;101269.91;5032977;28;20030;-48
2022/04/27 04:02:10;;;;;;;19.30;4.57;;;;;;;15.69;49.73;101284.06;5033922;28;20040;-51
2022/04/27 04:04:37;;;;;;;18.23;5.00;;;;;;;15.84;49.15;101279.06;5034228;28;20028;-50
2022/04/27 04:07:03;;;;;;;15.50;4.60;;;;;;;15.55;50.27;101288.81;5034140;28;20025;-49
2022/04/27 04:09:29;;;;;;;15.45;4.57;;;;;;;15.57;49.88;101284.00;5033789;28;20431;-51
2022/04/27 04:11:56;;;;;;;18.52;4.30;;;;;;;15.45;51.92;101299.31;5033553;28;20473;-50
2022/04/27 04:14:22;;;;;;;17.50;4.18;;;;;;;15.54;52.07;101309.53;5034117;28;20025;-48
2022/04/27 04:16:48;;;;;;;15.48;4.60;;;;;;;15.54;51.68;101316.81;5033646;28;20022;-48
2022/04/27 04:19:15;;;;;;;12.13;4.03;;;;;;;15.40;52.35;101318.84;5033721;28;20025;-48
2022/04/27 04:21:41;;;;;;;16.08;4.15;;;;;;;15.25;53.13;101316.53;5033644;28;20091;-47
2022/04/27 04:24:07;;;;;;;13.40;3.78;;;;;;;15.32;52.46;101327.25;5033320;28;20517;-48
2022/04/27 04:29:18;;;;;;;18.15;5.15;;;;;;;15.23;51.71;101328.59;5033356;28;20226;-51
2022/04/27 04:31:44;;;;;;;15.57;4.00;;;;;;;15.13;52.07;101326.44;5033296;28;20034;-47
2022/04/27 04:34:10;;;;;;;16.58;4.30;;;;;;;14.92;52.27;101334.94;5033398;28;20565;-51
2022/04/27 04:36:37;;;;;;;13.98;3.97;;;;;;;14.90;52.55;101334.34;5033391;28;20048;-50
2022/04/27 04:39:03;;;;;;;15.77;4.25;;;;;;;14.79;52.62;101339.41;5033204;28;20473;-51
2022/04/27 04:41:29;;;;;;;21.40;4.15;;;;;;;14.77;52.42;101338.00;5033338;28;20025;-48
2022/04/27 04:43:56;;;;;;;18.25;4.35;;;;;;;14.90;52.29;101331.66;5033107;28;20470;-49
2022/04/27 04:46:22;;;;;;;14.43;4.43;;;;;;;14.72;52.70;101333.28;5032987;28;20087;-48
2022/04/27 04:48:48;;;;;;;17.00;4.70;;;;;;;14.67;52.74;101325.03;5032995;28;20158;-48
2022/04/27 04:51:15;;;;;;;15.23;4.22;;;;;;;14.59;53.21;101329.84;5033114;28;20075;-48
2022/04/27 04:53:41;;;;;;;15.15;4.38;;;;;;;14.48;53.42;101329.53;5032941;28;20438;-49
2022/04/27 04:56:07;;;;;;;15.23;4.70;;;;;;;14.32;53.84;101329.22;5032852;28;20029;-48
2022/04/27 04:58:33;;;;;;;27.00;5.43;;;;;;;14.48;53.51;101334.91;5032812;28;20017;-48
2022/04/27 05:01:01;;;;;;;18.23;4.22;;;;;;;14.51;53.57;101345.25;5032813;28;20043;-49
2022/04/27 05:03:27;;;;;;;20.92;5.38;;;;;;;14.47;53.73;101346.75;5032745;28;20025;-48
2022/04/27 05:05:54;;;;;;;19.75;4.57;;;;;;;14.19;54.16;101357.88;5032974;28;20582;-48
2022/04/27 05:08:20;;;;;;;16.33;4.63;;;;;;;14.06;54.70;101359.84;5032679;28;20093;-48
2022/04/27 05:10:46;;;;;;;18.30;4.90;;;;;;;14.00;54.69;101359.66;5032324;28;20113;-48
2022/04/27 05:13:12;;;;;;;14.90;4.40;;;;;;;14.13;54.56;101349.84;5032588;28;20108;-48
2022/04/27 05:15:39;;;;;;;22.27;4.50;;;;;;;14.07;54.66;101350.72;5032799;28;20037;-48
2022/04/27 05:18:05;;;;;;;20.00;5.05;;;;;;;13.93;54.68;101350.78;5032755;28;20075;-49
2022/04/27 05:20:32;;;;;;;23.25;4.85;;;;;;;13.97;54.84;101348.50;5033239;28;20036;-50
2022/04/27 05:22:58;;;;;;;14.20;3.90;;;;;;;13.82;54.89;101347.94;5032513;28;20026;-50
2022/04/27 05:25:24;;;;;;;17.05;4.57;;;;;;;13.73;55.37;101350.09;5032446;28;20413;-48
2022/04/27 05:27:51;;;;;;;14.98;4.03;;;;;;;13.78;55.30;101354.81;5032661;28;20485;-48
2022/04/27 05:33:02;;;;;;;10.30;4.77;;;;;;;13.71;55.46;101344.06;5032844;28;20104;-48
2022/04/27 05:35:28;;;;;;;17.85;4.40;;;;;;;13.56;56.27;101340.84;5032301;28;20029;-50
2022/04/27 05:37:55;;;;;;;25.98;5.45;;;;;;;13.72;55.80;101353.81;5033073;28;20026;-51
2022/04/27 05:40:21;;;;;;;20.52;5.07;;;;;;;13.70;55.98;101358.56;5032507;28;20347;-51
2022/04/27 05:42:48;;;;;;;15.90;5.00;;;;;;;13.77;55.73;101350.47;5032270;28;20109;-53
2022/04/27 05:45:14;;;;;;;23.05;4.85;;;;;;;13.52;56.01;101353.88;5032434;28;20037;-51
2022/04/27 05:47:41;;;;;;;18.50;4.97;;;;;;;13.58;56.14;101360.28;5032219;28;20053;-49
2022/04/27 05:50:07;;;;;;;21.70;4.78;;;;;;;13.53;56.38;101360.91;5032839;28;20053;-50
2022/04/27 05:52:52;;;;;;;16.10;3.95;;;;;;;13.49;56.09;101362.38;5032353;28;20096;-51
2022/04/27 05:55:20;;;;;;;17.57;4.30;;;;;;;13.47;56.12;101359.09;5032535;28;20041;-50
2022/04/27 05:57:46;;;;;;;15.27;4.32;;;;;;;13.58;56.13;101357.59;5032650;28;20033;-50
2022/04/27 06:00:13;;;;;;;22.35;5.43;;;;;;;13.66;56.17;101360.06;5032225;28;20032;-48
2022/04/27 06:02:40;;;;;;;19.02;4.05;;;;;;;13.57;56.23;101353.25;5032442;28;20113;-50
2022/04/27 06:05:08;;;;;;;21.02;4.72;;;;;;;13.39;56.66;101362.84;5032207;28;20144;-48
2022/04/27 06:07:35;;;;;;;17.70;4.40;;;;;;;13.56;56.68;101362.38;5032249;28;20422;-50
2022/04/27 06:10:07;;;;;;;21.45;4.45;;;;;;;13.35;56.76;101366.97;5032105;28;20032;-50
2022/04/27 06:12:37;;;;;;;25.45;4.65;;;;;;;13.33;56.69;101362.88;5032382;28;20436;-49
2022/04/27 06:15:04;;;;;;;18.52;4.35;;;;;;;13.31;56.75;101371.13;5033212;28;20029;-49
2022/04/27 06:17:31;;;;;;;19.02;4.72;;;;;;;13.37;56.73;101372.97;5032097;28;20151;-50
2022/04/27 06:19:58;;;;;;;23.33;5.40;;;;;;;13.26;56.69;101360.16;5032044;28;20025;-51
2022/04/27 06:22:24;;;;;;;16.10;4.00;;;;;;;13.28;56.78;101368.03;5033827;28;20032;-48
2022/04/27 06:24:50;;;;;;;20.38;4.55;;;;;;;13.18;57.04;101363.88;5036326;28;20108;-47
2022/04/27 06:27:17;;;;;;;18.63;4.20;;;;;;;13.29;56.71;101372.38;5035940;28;20108;-47
2022/04/27 06:29:43;;;;;;;22.17;4.70;;;;;;;13.16;57.17;101370.53;5036017;28;20132;-51
2022/04/27 06:32:10;;;;;;;18.65;3.97;;;;;;;13.15;57.15;101363.47;5035896;28;20462;-49
2022/04/27 06:34:36;;;;;;;17.27;4.32;;;;;;;13.13;57.96;101365.56;5035624;28;20033;-50
2022/04/27 06:37:02;;;;;;;15.90;4.28;;;;;;;13.03;57.50;101363.28;5035706;28;20025;-51
2022/04/27 06:39:28;;;;;;;16.55;4.50;;;;;;;13.01;57.03;101359.19;5035660;28;20036;-51
2022/04/27 06:41:55;;;;;;;14.93;3.33;;;;;;;12.97;57.21;101364.13;5035229;28;20026;-49
2022/04/27 06:44:21;;;;;;;18.13;4.63;;;;;;;12.94;57.84;101360.00;5035439;28;20026;-51
2022/04/27 06:46:47;;;;;;;20.27;4.72;;;;;;;12.88;58.05;101366.22;5035962;28;20047;-51
2022/04/27 06:49:13;;;;;;;13.02;4.43;;;;;;;12.92;58.76;101369.31;5035344;28;20018;-49
2022/04/27 06:51:39;;;;;;;13.13;4.65;;;;;;;12.85;58.93;101369.31;5035148;28;20084;-48
2022/04/27 06:54:06;;;;;;;17.35;4.18;;;;;;;12.74;58.92;101375.31;5035502;28;20087;-49
2022/04/27 06:56:32;;;;;;;21.73;5.43;;;;;;;12.75;57.93;101368.91;5035153;28;20028;-50
2022/04/27 06:58:58;;;;;;;16.88;4.32;;;;;;;12.46;58.56;101378.19;5035163;28;20036;-51
2022/04/27 07:01:24;;;;;;;14.23;4.07;;;;;;;12.60;58.00;101368.28;5034966;28;20095;-50
2022/04/27 07:03:54;;;;;;;11.32;3.03;;;;;;;12.66;57.08;101373.69;5034990;28;20112;-49
2022/04/27 07:06:21;;;;;;;13.10;3.72;;;;;;;12.74;56.03;101366.44;5034818;28;20037;-48
2022/04/27 07:08:49;;;;;;;11.45;3.28;;;;;;;12.65;55.78;101368.50;5035149;28;20394;-52
2022/04/27 07:11:15;;;;;;;11.07;3.03;;;;;;;12.56;55.85;101373.25;5034857;28;20021;-50
2022/04/27 07:13:41;;;;;;;14.55;3.10;;;;;;;12.40;56.40;101368.28;5034826;28;20405;-50
2022/04/27 07:16:07;;;;;;;11.35;3.20;;;;;;;12.34;56.49;101367.25;5034854;28;20060;-50
2022/04/27 07:18:34;;;;;;;17.52;3.50;;;;;;;12.25;56.71;101371.16;5034969;28;20466;-49
2022/04/27 07:21:00;;;;;;;10.90;2.92;;;;;;;12.28;56.86;101368.06;5034825;28;20025;-49
2022/04/27 07:23:27;;;;;;;10.75;3.22;;;;;;;12.35;57.09;101374.25;5034454;28;20450;-48
2022/04/27 07:25:53;;;;;;;15.20;2.92;;;;;;;12.33;56.83;101368.28;5034679;28;20025;-49
2022/04/27 07:28:19;;;;;;;13.63;3.28;;;;;;;12.42;56.51;101374.25;5034566;28;20394;-49
2022/04/27 07:30:45;;;;;;;14.13;3.80;;;;;;;12.38;56.52;101373.00;5034682;28;20029;-51
2022/04/27 07:33:12;;;;;;;11.23;3.55;;;;;;;12.31;56.52;101373.00;5034458;28;20017;-52
2022/04/27 07:35:38;;;;;;;10.85;3.72;;;;;;;12.28;56.25;101360.00;5034434;28;20049;-50
2022/04/27 07:38:04;;;;;;;9.05;2.95;;;;;;;12.35;56.71;101365.38;5034314;28;20104;-52
2022/04/27 07:40:31;;;;;;;13.52;3.97;;;;;;;12.38;56.34;101364.97;5034505;28;20543;-52
2022/04/27 07:42:59;;;;;;;11.68;2.97;;;;;;;12.26;56.46;101363.91;5034492;28;20022;-52
2022/04/27 07:45:26;;;;;;;9.70;3.15;;;;;;;12.28;55.90;101362.69;5034521;28;20116;-52
2022/04/27 07:47:52;;;;;;;9.70;3.30;;;;;;;12.29;55.83;101369.72;5033973;28;20504;-51
2022/04/27 07:50:20;;;;;;;8.70;2.85;;;;;;;12.18;56.02;101373.00;5034491;28;20025;-50
2022/04/27 07:52:46;;;;;;;14.25;3.00;;;;;;;11.77;57.87;101373.03;5034114;28;20018;-52
2022/04/27 07:55:12;;;;;;;11.13;2.78;;;;;;;12.07;56.85;101378.97;5034286;28;20049;-50
2022/04/27 07:57:39;;;;;;;13.32;3.88;;;;;;;12.17;56.54;101375.91;5034170;28;20030;-52
2022/04/27 08:00:12;;;;;;;12.57;3.30;;;;;;;12.09;56.73;101385.75;5033699;28;20120;-50
2022/04/27 08:02:41;;;;;;;17.50;3.53;;;;;;;12.04;56.87;101373.97;5033883;28;20029;-51
2022/04/27 08:05:10;;;;;;;12.52;3.58;;;;;;;12.06;57.39;101371.94;5034331;28;20029;-53
2022/04/27 08:07:43;;;;;;;12.63;3.28;;;;;;;11.90;58.04;101367.78;5034616;28;20108;-50
2022/04/27 08:10:20;;;;;;;9.88;3.22;;;;;;;12.03;56.79;101358.91;5033886;28;20509;-51
2022/04/27 08:12:49;;;;;;;12.77;3.28;;;;;;;12.18;56.88;101364.94;5033828;28;20481;-49
2022/04/27 08:15:20;;;;;;;10.15;4.10;;;;;;;11.91;57.59;101364.06;5033847;28;20485;-50
2022/04/27 08:18:16;;;;;;;11.10;2.80;;;;;;;11.91;57.39;101357.88;5033818;28;20025;-52
2022/04/27 08:23:29;;;;;;;14.50;3.03;;;;;;;11.77;57.97;101357.81;5033750;28;20040;-49
2022/04/27 08:25:59;;;;;;;17.80;3.55;;;;;;;11.75;57.88;101349.09;5033516;28;20048;-51
2022/04/27 08:28:27;;;;;;;14.57;3.10;;;;;;;11.65;58.48;101345.97;5033501;28;20399;-50
2022/04/27 08:30:54;;;;;;;11.02;2.65;;;;;;;11.68;57.94;101358.16;5033456;28;20036;-49
2022/04/27 08:33:20;;;;;;;13.90;3.20;;;;;;;11.64;57.95;101353.19;5033246;28;20056;-50
2022/04/27 08:35:47;;;;;;;16.13;3.13;;;;;;;11.48;58.30;101355.38;5033097;28;20022;-52
2022/04/27 08:38:14;;;;;;;10.77;2.67;;;;;;;11.43;58.69;101355.16;5033274;28;20060;-51
2022/04/27 08:40:45;;;;;;;13.38;3.20;;;;;;;11.54;58.46;101354.59;5033191;28;20033;-52
2022/04/27 08:43:13;;;;;;;10.98;3.03;;;;;;;11.46;58.49;101362.81;5033583;28;20105;-49
2022/04/27 08:45:44;;;;;;;11.40;2.88;;;;;;;11.45;58.22;101361.16;5032646;28;20030;-49
2022/04/27 08:48:12;;;;;;;12.38;3.03;;;;;;;11.32;58.61;101361.91;5033200;28;20083;-49
2022/04/27 08:50:39;;;;;;;14.15;3.40;;;;;;;10.87;60.29;101357.91;5033073;28;20466;-51
2022/04/27 08:53:07;;;;;;;13.00;3.70;;;;;;;11.09;59.74;101364.88;5032949;28;20055;-52
2022/04/27 08:55:36;;;;;;;14.02;4.07;;;;;;;11.22;59.34;101364.97;5033064;28;20076;-52
2022/04/27 08:58:12;;;;;;;17.08;3.63;;;;;;;11.30;59.34;101372.84;5032987;28;20064;-50
2022/04/27 09:00:39;;;;;;;10.80;3.50;;;;;;;10.97;59.98;101379.84;5033040;28;20392;-50
2022/04/27 09:03:24;;;;;;;11.60;3.63;;;;;;;10.98;60.18;101376.13;5032865;28;20096;-50
2022/04/27 09:05:53;;;;;;;10.23;3.40;;;;;;;10.82;60.54;101374.56;5032771;28;20037;-52
2022/04/27 09:08:20;;;;;;;12.02;3.40;;;;;;;10.79;60.13;101381.16;5033003;28;20033;-50
2022/04/27 09:10:46;;;;;;;12.77;3.60;;;;;;;10.85;60.10;101371.50;5032752;28;20454;-49
2022/04/27 09:13:13;;;;;;;17.58;4.32;;;;;;;10.81;60.24;101372.91;5032751;28;20056;-50
2022/04/27 09:15:40;;;;;;;10.75;3.10;;;;;;;10.81;60.38;101367.56;5033211;28;20025;-49
2022/04/27 09:21:01;;;;;;;11.50;3.65;;;;;;;10.90;60.45;101357.53;5033036;28;20032;-49
2022/04/27 09:23:45;;;;;;;14.75;4.43;;;;;;;10.60;61.43;101355.03;5032589;28;20018;-49
2022/04/27 09:26:19;;;;;;;14.77;3.30;;;;;;;10.61;61.05;101348.69;5032636;28;20033;-49
2022/04/27 09:28:50;;;;;;;12.07;3.25;;;;;;;10.68;60.56;101351.41;5032385;28;20100;-51
2022/04/27 09:31:45;;;;;;;14.23;3.67;;;;;;;10.57;60.99;101355.44;5032527;28;20112;-50
2022/04/27 09:34:31;;;;;;;14.23;4.13;;;;;;;10.51;60.66;101351.69;5015838;28;20037;-52
2022/04/27 09:37:02;;;;;;;16.90;4.07;;;;;;;10.57;61.17;101339.38;5032655;28;20021;-49
2022/04/27 09:39:29;;;;;;;12.60;4.45;;;;;;;10.64;62.93;101329.53;5032521;28;20025;-48
2022/04/27 09:42:06;;;;;;;16.20;4.35;;;;;;;10.35;66.17;101338.56;5032534;28;20049;-49
2022/04/27 09:44:34;;;;;;;20.23;4.57;;;;;;;10.40;66.52;101333.47;5032586;28;20029;-49
2022/04/27 09:47:03;;;;;;;21.23;5.32;;;;;;;10.35;66.75;101325.19;5032594;28;20029;-48
2022/04/27 09:49:35;;;;;;;18.13;5.53;;;;;;;10.55;66.95;101323.50;5032323;28;20470;-50
2022/04/27 09:52:02;;;;;;;27.92;6.13;;;;;;;10.24;68.63;101318.50;5032340;28;20044;-49
2022/04/27 09:54:30;;;;;;;17.30;4.95;;;;;;;10.20;69.05;101316.38;5032445;28;20026;-52
2022/04/27 09:56:58;;;;;;;23.27;4.85;;;;;;;10.37;68.14;101325.00;5033488;28;20104;-50
2022/04/27 09:59:31;;;;;;;18.10;5.68;;;;;;;10.22;68.56;101336.56;5036465;28;20156;-49
2022/04/27 10:02:10;;;;;;;21.42;5.65;;;;;;;10.18;69.06;101331.78;5036039;28;20025;-51
2022/04/27 10:04:38;;;;;;;21.92;5.38;;;;;;;10.13;69.46;101331.53;5035915;28;20053;-50
2022/04/27 10:07:12;;;;;;;15.63;5.03;;;;;;;10.27;69.50;101331.50;5036204;28;20029;-51
2022/04/27 10:09:39;;;;;;;25.92;5.28;;;;;;;10.26;68.53;101337.03;5036300;28;20025;-51
2022/04/27 10:12:11;;;;;;;14.10;4.25;;;;;;;10.18;69.39;101350.53;5036036;28;20029;-49
2022/04/27 10:14:37;;;;;;;20.70;5.30;;;;;;;10.27;69.33;101342.22;5035888;28;20025;-52
2022/04/27 10:17:05;;;;;;;16.83;4.68;;;;;;;10.37;69.20;101338.38;5035852;28;20143;-48
2022/04/27 10:19:31;;;;;;;16.92;4.55;;;;;;;10.29;68.87;101342.84;5036339;28;20036;-52
2022/04/27 10:21:57;;;;;;;25.48;5.53;;;;;;;10.26;69.37;101348.56;5035906;28;20025;-50
2022/04/27 10:24:41;;;;;;;19.75;6.00;;;;;;;10.31;68.91;101348.00;5035843;28;20017;-52
2022/04/27 10:27:15;;;;;;;21.60;5.00;;;;;;;10.29;68.45;101348.19;5035632;28;20030;-52
2022/04/27 10:29:44;;;;;;;21.10;4.65;;;;;;;10.25;69.34;101349.59;5035549;28;20044;-51
2022/04/27 10:32:10;;;;;;;18.95;5.03;;;;;;;10.35;69.01;101354.63;5035669;28;20036;-51
2022/04/27 10:34:36;;;;;;;15.07;5.07;;;;;;;10.38;68.25;101354.22;5035489;28;20040;-49
2022/04/27 10:37:03;;;;;;;16.30;4.82;;;;;;;10.39;67.41;101339.84;5035481;28;20021;-51
2022/04/27 10:39:34;;;;;;;27.23;5.07;;;;;;;10.45;68.54;101347.09;5035681;28;20045;-50
2022/04/27 10:42:03;;;;;;;20.52;4.70;;;;;;;10.27;68.75;101350.25;5035704;28;20432;-48
2022/04/27 10:44:50;;;;;;;22.15;5.25;;;;;;;10.32;69.32;101342.44;5035457;28;20536;-49
2022/04/27 10:47:21;;;;;;;18.60;4.88;;;;;;;10.19;69.80;101347.66;5035299;28;20105;-51
2022/04/27 10:50:09;;;;;;;22.95;4.53;;;;;;;10.17;69.82;101352.38;5035204;28;20037;-50
2022/04/27 10:52:51;;;;;;;21.08;4.95;;;;;;;10.27;69.83;101357.41;5035139;28;20452;-50
2022/04/27 10:55:35;;;;;;;21.77;5.10;;;;;;;10.38;69.93;101364.94;5035515;28;20156;-49
2022/04/27 10:58:23;;;;;;;18.48;5.00;;;;;;;10.36;69.59;101364.31;5035206;28;20048;-50
2022/04/27 11:01:15;;;;;;;23.35;5.22;;;;;;;10.28;69.19;101369.78;5035154;28;20379;-48
2022/04/27 11:03:41;;;;;;;17.77;5.00;;;;;;;10.37;69.33;101359.78;5025833;28;20406;-49
2022/04/27 11:06:12;;;;;;;17.52;5.10;;;;;;;10.46;69.45;101358.63;5035705;28;20021;-49
2022/04/27 11:09:16;;;;;;;18.85;4.80;;;;;;;10.29;69.42;101366.91;5034456;28;20541;-48
2022/04/27 11:11:56;;;;;;;18.73;4.78;;;;;;;10.26;69.69;101367.28;5034911;28;20477;-49
2022/04/27 11:14:29;;;;;;;20.88;4.97;;;;;;;10.39;68.58;101369.28;5034888;28;20385;-50
2022/04/27 11:16:56;;;;;;;14.38;4.22;;;;;;;10.41;67.73;101359.22;5035038;28;20511;-51
2022/04/27 11:19:36;;;;;;;16.17;3.85;;;;;;;10.47;67.62;101362.97;5034729;28;20025;-49
2022/04/27 11:22:23;;;;;;;17.95;5.45;;;;;;;10.38;68.99;101353.41;5034790;28;20017;-50
2022/04/27 11:24:49;;;;;;;19.65;4.90;;;;;;;10.35;69.42;101359.16;5034778;28;20029;-49
2022/04/27 11:27:27;;;;;;;17.70;5.22;;;;;;;10.41;69.79;101351.19;5034639;28;20013;-49
2022/04/27 11:29:55;;;;;;;21.35;5.03;;;;;;;10.37;69.19;101359.78;5034484;28;20045;-49
2022/04/27 11:32:22;;;;;;;23.70;5.80;;;;;;;10.39;69.05;101357.75;5034337;28;20112;-49
2022/04/27 11:34:49;;;;;;;22.63;6.43;;;;;;;10.28;69.12;101361.78;5034555;28;20076;-50
2022/04/27 11:37:18;;;;;;;21.27;5.20;;;;;;;10.29;69.10;101366.91;5034900;28;20025;-49
2022/04/27 11:39:45;;;;;;;24.88;5.25;;;;;;;10.30;69.79;101357.88;5034507;28;20045;-49
2022/04/27 11:42:13;;;;;;;18.27;5.25;;;;;;;10.24;69.17;101364.00;5034437;28;20084;-49
2022/04/27 11:44:43;;;;;;;17.08;4.53;;;;;;;10.14;69.36;101349.25;5034258;28;20025;-49